Time;durP1;ratioP1;P1;durP2;ratioP2;P2;SDS_P1;SDS_P2;PMS_P1;PMS_P2;Temp;Humidity;BMP_temperature;BMP_pressure;BME280_temperature;BME280_humidity;BME280_pressure;Samples;Min_cycle;Max_cycle;Signal;HPM_P1;HPM_P2
2023/10/25 00:00:09;;;;;;;5.50;4.63;;;12.60;99.90;;;;;;5012055;28;20465;-72
2023/10/25 00:02:35;;;;;;;6.47;4.47;;;12.60;99.90;;;;;;5014270;28;20177;-72
2023/10/25 00:05:01;;;;;;;5.10;4.70;;;12.60;99.90;;;;;;5012435;28;20493;-70
2023/10/25 00:07:26;;;;;;;4.63;4.23;;;12.60;99.90;;;;;;5013668;28;20438;-72
2023/10/25 00:09:52;;;;;;;5.40;5.00;;;12.60;99.90;;;;;;5013309;28;20173;-72
2023/10/25 00:12:18;;;;;;;5.73;5.33;;;12.60;99.90;;;;;;5013532;28;20231;-72
2023/10/25 00:14:44;;;;;;;5.90;5.40;;;12.60;99.90;;;;;;5013381;28;20170;-67
2023/10/25 00:17:10;;;;;;;6.47;5.97;;;12.50;99.90;;;;;;5013867;28;20417;-72
2023/10/25 00:19:36;;;;;;;6.10;5.57;;;12.60;99.90;;;;;;5013436;28;20206;-72
2023/10/25 00:22:01;;;;;;;5.83;5.23;;;12.60;99.90;;;;;;5011326;28;20209;-72
2023/10/25 00:24:27;;;;;;;5.83;4.70;;;12.60;99.90;;;;;;5013891;28;20174;-72
2023/10/25 00:26:53;;;;;;;4.97;4.67;;;12.60;99.90;;;;;;5012996;28;20176;-71
2023/10/25 00:29:19;;;;;;;4.80;4.40;;;12.60;99.90;;;;;;5013727;28;20202;-72
2023/10/25 00:31:45;;;;;;;6.03;5.63;;;12.50;99.90;;;;;;5012810;28;20419;-68
2023/10/25 00:34:11;;;;;;;4.90;4.60;;;12.60;99.90;;;;;;5013728;28;20578;-72
2023/10/25 00:36:37;;;;;;;4.87;4.57;;;12.60;99.90;;;;;;5012592;28;20436;-72
2023/10/25 00:39:03;;;;;;;4.80;4.40;;;12.60;99.90;;;;;;5012547;28;20454;-72
2023/10/25 00:41:29;;;;;;;4.37;4.07;;;12.60;99.90;;;;;;5011047;28;20191;-71
2023/10/25 00:43:54;;;;;;;4.40;4.20;;;12.50;99.90;;;;;;5012509;28;20180;-72
2023/10/25 00:46:24;;;;;;;8.17;4.87;;;12.50;99.90;;;;;;5013172;28;20661;-72
2023/10/25 00:48:53;;;;;;;5.10;4.63;;;12.60;99.90;;;;;;5012165;28;20464;-72
2023/10/25 00:51:22;;;;;;;5.33;4.83;;;12.60;99.90;;;;;;5013005;28;20991;-72
2023/10/25 00:53:51;;;;;;;4.47;4.17;;;12.60;99.90;;;;;;5012430;28;20423;-71
2023/10/25 00:56:19;;;;;;;5.67;4.50;;;12.60;99.90;;;;;;5013145;28;20426;-72
2023/10/25 00:58:48;;;;;;;5.80;5.20;;;12.60;99.90;;;;;;5011219;28;20425;-66
2023/10/25 01:01:15;;;;;;;4.80;4.60;;;12.60;99.90;;;;;;5013116;28;20413;-72
2023/10/25 01:03:41;;;;;;;5.93;4.30;;;12.60;99.90;;;;;;5012733;28;20430;-72
2023/10/25 01:06:07;;;;;;;4.70;4.40;;;12.60;99.90;;;;;;5010895;28;20999;-72
2023/10/25 01:08:33;;;;;;;4.83;4.20;;;12.60;99.90;;;;;;5011877;28;20989;-72
2023/10/25 01:10:59;;;;;;;5.47;4.97;;;12.60;99.90;;;;;;5010991;28;20496;-72
2023/10/25 01:13:24;;;;;;;4.87;4.57;;;12.50;99.90;;;;;;5011629;28;20539;-72
2023/10/25 01:15:50;;;;;;;5.00;4.60;;;12.50;99.90;;;;;;5011765;28;20253;-72
2023/10/25 01:18:16;;;;;;;5.10;4.80;;;12.50;99.90;;;;;;5012596;28;20217;-72
2023/10/25 01:20:46;;;;;;;4.77;4.47;;;12.40;99.90;;;;;;5011286;28;20256;-72
2023/10/25 01:23:12;;;;;;;5.90;4.70;;;12.40;99.90;;;;;;5010743;28;20489;-72
2023/10/25 01:25:38;;;;;;;5.87;5.47;;;12.40;99.90;;;;;;5012655;28;20421;-71
2023/10/25 01:28:05;;;;;;;5.43;5.10;;;12.40;99.90;;;;;;5011934;28;20419;-72
2023/10/25 01:30:31;;;;;;;4.73;4.53;;;12.40;99.90;;;;;;5010314;28;20440;-71
2023/10/25 01:32:58;;;;;;;5.50;5.07;;;12.40;99.90;;;;;;5011015;28;20425;-71
2023/10/25 01:35:24;;;;;;;4.30;4.10;;;12.40;99.90;;;;;;5011075;28;20651;-71
2023/10/25 01:37:50;;;;;;;4.77;4.47;;;12.30;99.90;;;;;;5011420;28;20412;-67
2023/10/25 01:40:16;;;;;;;4.60;4.30;;;12.30;99.90;;;;;;5011058;28;20464;-69
2023/10/25 01:42:43;;;;;;;4.93;4.63;;;12.30;99.90;;;;;;4994023;28;20203;-71
2023/10/25 01:45:09;;;;;;;5.60;5.20;;;12.30;99.90;;;;;;4992433;28;20406;-72
2023/10/25 01:47:35;;;;;;;6.13;4.57;;;12.30;99.90;;;;;;4994034;28;20476;-71
2023/10/25 01:50:01;;;;;;;4.83;4.50;;;12.30;99.90;;;;;;5011275;28;20414;-72
2023/10/25 01:52:27;;;;;;;4.30;3.90;;;12.30;99.90;;;;;;5010203;28;20228;-72
2023/10/25 01:54:53;;;;;;;3.97;3.77;;;12.30;99.90;;;;;;5011561;28;20175;-71
2023/10/25 01:57:19;;;;;;;3.80;3.50;;;12.40;99.90;;;;;;5011082;28;20428;-72
2023/10/25 01:59:45;;;;;;;4.47;4.13;;;12.40;99.90;;;;;;5010819;28;20207;-72
2023/10/25 02:02:11;;;;;;;3.83;3.63;;;12.30;99.90;;;;;;5011459;28;20900;-72
2023/10/25 02:04:37;;;;;;;4.50;4.20;;;12.30;99.90;;;;;;5010525;28;20425;-72
2023/10/25 02:07:03;;;;;;;3.90;3.70;;;12.40;99.90;;;;;;5011452;28;20421;-72
2023/10/25 02:09:29;;;;;;;4.90;3.73;;;12.40;99.90;;;;;;5012189;28;20179;-72
2023/10/25 02:11:55;;;;;;;4.87;4.37;;;12.40;99.90;;;;;;5011068;28;20416;-71
2023/10/25 02:14:21;;;;;;;4.30;3.90;;;12.40;99.90;;;;;;5012251;28;20537;-72
2023/10/25 02:16:47;;;;;;;3.83;3.63;;;12.30;99.90;;;;;;5012087;28;20496;-72
2023/10/25 02:19:13;;;;;;;4.43;4.03;;;12.30;99.90;;;;;;5010896;28;20514;-72
2023/10/25 02:21:39;;;;;;;3.63;3.43;;;12.20;99.90;;;;;;5012310;28;20190;-72
2023/10/25 02:24:05;;;;;;;4.00;3.80;;;12.20;99.90;;;;;;5009991;28;20428;-72
2023/10/25 02:26:31;;;;;;;4.30;3.97;;;12.20;99.90;;;;;;5012172;28;20174;-72
2023/10/25 02:28:58;;;;;;;3.83;3.63;;;12.20;99.90;;;;;;5006181;28;20432;-71
2023/10/25 02:31:24;;;;;;;4.00;3.80;;;12.20;99.90;;;;;;5011852;28;20410;-71
2023/10/25 02:33:50;;;;;;;4.03;3.73;;;12.10;99.90;;;;;;5011377;28;20418;-66
2023/10/25 02:36:16;;;;;;;5.07;4.07;;;12.10;99.90;;;;;;5010883;28;20593;-72
2023/10/25 02:38:41;;;;;;;4.57;4.27;;;12.10;99.90;;;;;;5010822;28;20258;-72
2023/10/25 02:41:07;;;;;;;5.00;3.90;;;12.10;99.90;;;;;;5010913;28;20423;-72
2023/10/25 02:43:34;;;;;;;4.30;4.00;;;12.10;99.90;;;;;;5011671;28;20165;-72
2023/10/25 02:46:02;;;;;;;4.37;3.83;;;12.10;99.90;;;;;;5011247;28;20173;-71
2023/10/25 02:48:28;;;;;;;4.47;4.27;;;12.10;99.90;;;;;;5011354;28;20979;-72
2023/10/25 02:50:54;;;;;;;4.53;4.23;;;12.10;99.90;;;;;;5010940;28;20822;-67
2023/10/25 02:53:20;;;;;;;4.50;4.20;;;12.00;99.90;;;;;;5011886;28;20406;-72
2023/10/25 02:55:47;;;;;;;4.20;4.00;;;12.00;99.90;;;;;;5011852;28;20178;-72
2023/10/25 02:58:16;;;;;;;4.40;4.10;;;12.00;99.90;;;;;;5010994;28;20167;-72
2023/10/25 03:00:41;;;;;;;6.13;4.30;;;12.00;99.90;;;;;;5010751;28;20507;-72
2023/10/25 03:03:07;;;;;;;4.70;4.40;;;11.90;99.90;;;;;;5010353;28;20422;-72
2023/10/25 03:05:33;;;;;;;3.93;3.60;;;12.00;99.90;;;;;;5013482;28;20404;-72
2023/10/25 03:07:59;;;;;;;4.80;4.50;;;12.00;99.90;;;;;;5013978;28;20186;-72
2023/10/25 03:10:25;;;;;;;4.53;4.33;;;12.00;99.90;;;;;;5015156;28;20182;-72
2023/10/25 03:12:51;;;;;;;4.23;4.03;;;12.00;99.90;;;;;;5015229;28;20787;-72
2023/10/25 03:15:17;;;;;;;4.67;4.37;;;11.90;99.90;;;;;;5013136;28;20415;-72
2023/10/25 03:17:43;;;;;;;4.60;4.40;;;11.90;99.90;;;;;;5014413;28;20175;-71
2023/10/25 03:20:09;;;;;;;5.50;5.03;;;11.90;99.90;;;;;;5013968;28;20535;-72
2023/10/25 03:22:35;;;;;;;5.43;4.93;;;11.90;99.90;;;;;;5014731;28;20670;-72
2023/10/25 03:25:01;;;;;;;7.23;4.60;;;11.80;99.90;;;;;;5013782;28;20398;-72
2023/10/25 03:27:26;;;;;;;5.63;5.33;;;11.80;99.90;;;;;;5013994;28;20252;-72
2023/10/25 03:29:52;;;;;;;7.67;5.00;;;11.90;99.90;;;;;;5012419;28;20198;-72
2023/10/25 03:32:18;;;;;;;5.13;4.83;;;11.80;99.90;;;;;;5012603;28;20624;-72
2023/10/25 03:34:44;;;;;;;6.67;6.13;;;11.90;99.90;;;;;;5011960;28;20661;-71
2023/10/25 03:37:10;;;;;;;5.97;5.57;;;11.80;99.90;;;;;;5009739;28;20194;-72
2023/10/25 03:39:36;;;;;;;5.93;5.33;;;11.80;99.90;;;;;;5001923;28;20827;-73
2023/10/25 03:42:03;;;;;;;6.30;5.77;;;11.80;99.90;;;;;;4994095;28;20428;-72
2023/10/25 03:44:29;;;;;;;9.33;8.73;;;11.80;99.90;;;;;;4995218;28;20415;-73
2023/10/25 03:46:55;;;;;;;9.17;8.23;;;11.70;99.90;;;;;;4994678;28;20974;-68
2023/10/25 03:49:21;;;;;;;8.00;7.40;;;11.70;99.90;;;;;;4993196;28;20425;-72
2023/10/25 03:51:47;;;;;;;6.60;6.10;;;11.70;99.90;;;;;;4995762;28;20466;-73
2023/10/25 03:54:12;;;;;;;1410.73;803.17;;;11.70;99.90;;;;;;5013448;28;20430;-73
2023/10/25 03:56:40;;;;;;;52.23;35.80;;;11.70;99.90;;;;;;5014274;28;20536;-73
2023/10/25 03:59:06;;;;;;;7.33;6.73;;;11.70;99.90;;;;;;5012378;28;20318;-72
2023/10/25 04:01:32;;;;;;;5.90;5.40;;;11.70;99.90;;;;;;5014043;28;20433;-73
2023/10/25 04:03:58;;;;;;;7.00;6.40;;;11.70;99.90;;;;;;5011838;28;20246;-74
2023/10/25 04:06:23;;;;;;;6.07;5.57;;;11.70;99.90;;;;;;5006537;28;20183;-71
2023/10/25 04:08:49;;;;;;;7.13;6.40;;;11.70;99.90;;;;;;4994894;28;20421;-71
2023/10/25 04:11:15;;;;;;;8.50;6.80;;;11.70;99.90;;;;;;4993189;28;20175;-72
2023/10/25 04:13:41;;;;;;;9.87;8.90;;;11.80;99.90;;;;;;5010248;28;20198;-72
2023/10/25 04:16:09;;;;;;;7.70;7.00;;;11.80;99.90;;;;;;5012658;28;20211;-72
2023/10/25 04:18:35;;;;;;;6.50;5.90;;;11.90;99.90;;;;;;5013641;28;20226;-70
2023/10/25 04:21:01;;;;;;;7.23;6.57;;;11.90;99.90;;;;;;5013242;28;20547;-69
2023/10/25 04:23:29;;;;;;;5.93;5.43;;;11.90;99.90;;;;;;5013510;28;20460;-70
2023/10/25 04:26:05;;;;;;;6.20;5.70;;;11.90;99.90;;;;;;5012103;28;20422;-70
2023/10/25 04:28:31;;;;;;;7.30;6.53;;;11.90;99.90;;;;;;5012641;28;20483;-69
2023/10/25 04:30:56;;;;;;;6.47;6.07;;;11.90;99.90;;;;;;5011381;28;20434;-66
2023/10/25 04:33:22;;;;;;;8.30;7.80;;;11.90;99.90;;;;;;5013002;28;20503;-70
2023/10/25 04:35:48;;;;;;;6.73;5.50;;;11.90;99.90;;;;;;4995095;28;20523;-68
2023/10/25 04:38:13;;;;;;;7.37;3.97;;;11.90;99.90;;;;;;5012783;28;20180;-70
2023/10/25 04:40:39;;;;;;;7.33;6.03;;;11.80;99.90;;;;;;4996891;28;20195;-70
2023/10/25 04:43:05;;;;;;;6.90;6.40;;;11.70;99.90;;;;;;4994865;28;20219;-69
2023/10/25 04:45:30;;;;;;;6.83;6.20;;;11.70;99.90;;;;;;5009776;28;20184;-70
2023/10/25 04:47:56;;;;;;;6.83;6.27;;;11.70;99.90;;;;;;5004432;28;20182;-69
2023/10/25 04:50:22;;;;;;;6.80;5.93;;;11.70;99.90;;;;;;5012076;28;20192;-69
2023/10/25 04:52:48;;;;;;;5.10;4.60;;;11.70;99.90;;;;;;5013822;28;20544;-70
2023/10/25 04:55:14;;;;;;;6.20;5.67;;;11.80;99.90;;;;;;5011793;28;20429;-69
2023/10/25 04:57:40;;;;;;;9.40;8.23;;;11.80;99.90;;;;;;5012881;28;20854;-70
2023/10/25 05:00:10;;;;;;;7.00;6.40;;;11.80;99.90;;;;;;5006508;28;20807;-69
2023/10/25 05:02:38;;;;;;;7.80;7.10;;;11.80;99.90;;;;;;5010064;28;20514;-70
2023/10/25 05:05:05;;;;;;;9.07;8.17;;;11.80;99.90;;;;;;5011964;28;20419;-70
2023/10/25 05:07:31;;;;;;;8.20;7.50;;;11.80;99.90;;;;;;4994005;28;20427;-70
2023/10/25 05:09:57;;;;;;;7.53;6.83;;;11.90;99.90;;;;;;5001660;28;20425;-70
2023/10/25 05:12:36;;;;;;;12.97;8.20;;;11.90;99.90;;;;;;5011496;28;21152;-70
2023/10/25 05:15:02;;;;;;;7.83;7.13;;;12.00;99.90;;;;;;5011039;28;20418;-66
2023/10/25 05:17:28;;;;;;;7.87;7.20;;;12.00;99.90;;;;;;5012205;28;20429;-69
2023/10/25 05:19:54;;;;;;;6.70;5.80;;;12.10;99.90;;;;;;5011961;28;20486;-69
2023/10/25 05:22:27;;;;;;;6.20;5.60;;;12.10;99.90;;;;;;5011847;28;21118;-70
2023/10/25 05:24:54;;;;;;;8.47;7.67;;;12.20;99.90;;;;;;5012640;28;20410;-69
2023/10/25 05:27:20;;;;;;;8.57;6.37;;;12.20;99.90;;;;;;5005444;28;20423;-69
2023/10/25 05:29:46;;;;;;;6.70;6.10;;;12.30;99.90;;;;;;5003869;28;20794;-70
2023/10/25 05:32:17;;;;;;;7.20;6.60;;;12.30;99.90;;;;;;5007393;28;20420;-69
2023/10/25 05:34:43;;;;;;;7.53;6.83;;;12.30;99.90;;;;;;5010442;28;20426;-70
2023/10/25 05:37:09;;;;;;;7.50;6.90;;;12.30;99.90;;;;;;5011662;28;20876;-70
2023/10/25 05:39:36;;;;;;;7.03;6.33;;;12.30;99.90;;;;;;5012420;28;20442;-70
2023/10/25 05:42:04;;;;;;;7.87;6.87;;;12.30;99.90;;;;;;5010291;28;20426;-67
2023/10/25 05:44:31;;;;;;;7.10;6.40;;;12.30;99.90;;;;;;5012240;28;20504;-71
2023/10/25 05:46:57;;;;;;;8.33;7.60;;;12.30;99.90;;;;;;5011493;28;20429;-71
2023/10/25 05:49:23;;;;;;;9.20;7.90;;;12.30;99.90;;;;;;5010972;28;20420;-70
2023/10/25 05:51:49;;;;;;;8.80;8.00;;;12.30;99.90;;;;;;5010287;28;20473;-71
2023/10/25 05:54:15;;;;;;;9.07;8.17;;;12.40;99.90;;;;;;4996088;28;20481;-71
2023/10/25 05:56:41;;;;;;;9.03;7.60;;;12.30;99.90;;;;;;5005202;28;20428;-71
2023/10/25 05:59:07;;;;;;;8.13;7.43;;;12.40;99.90;;;;;;5009790;28;20560;-68
2023/10/25 06:01:45;;;;;;;8.77;8.03;;;12.30;99.90;;;;;;5012158;28;20474;-70
2023/10/25 06:04:12;;;;;;;9.13;8.33;;;12.30;99.90;;;;;;5009682;28;20988;-69
2023/10/25 06:06:44;;;;;;;8.73;7.93;;;12.30;99.90;;;;;;5012189;28;20507;-71
2023/10/25 06:09:10;;;;;;;13.43;10.13;;;12.30;99.90;;;;;;5005421;28;20823;-70
2023/10/25 06:11:40;;;;;;;9.80;8.80;;;12.30;99.90;;;;;;5009964;28;20430;-69
2023/10/25 06:14:07;;;;;;;8.73;7.40;;;12.30;99.90;;;;;;5002994;28;20436;-66
2023/10/25 06:16:33;;;;;;;9.13;8.30;;;12.30;99.90;;;;;;4992747;28;20548;-70
2023/10/25 06:18:59;;;;;;;9.10;8.33;;;12.40;99.90;;;;;;5004178;28;20415;-69
2023/10/25 06:21:25;;;;;;;8.27;7.50;;;12.30;99.90;;;;;;5000674;28;20427;-69
2023/10/25 06:23:51;;;;;;;10.60;6.90;;;12.30;99.90;;;;;;4993642;28;20458;-69
2023/10/25 06:26:18;;;;;;;8.47;7.50;;;12.30;99.90;;;;;;5000765;28;20527;-70
2023/10/25 06:28:44;;;;;;;7.73;7.03;;;12.50;99.90;;;;;;4997384;28;20857;-70
2023/10/25 06:31:11;;;;;;;7.70;7.00;;;12.30;99.90;;;;;;5004985;28;20465;-70
2023/10/25 06:33:37;;;;;;;8.87;7.97;;;12.40;99.90;;;;;;4993198;28;20176;-70
2023/10/25 06:36:03;;;;;;;7.73;6.97;;;12.40;99.90;;;;;;5009009;28;20425;-70
2023/10/25 06:38:30;;;;;;;8.50;7.70;;;12.30;99.90;;;;;;5003170;28;20954;-77
2023/10/25 06:40:56;;;;;;;7.97;7.17;;;12.20;99.90;;;;;;5002533;28;20510;-72
2023/10/25 06:43:23;;;;;;;8.70;7.00;;;12.20;99.90;;;;;;5009355;28;20422;-72
2023/10/25 06:45:49;;;;;;;8.80;7.97;;;12.20;99.90;;;;;;5015346;28;20480;-71
2023/10/25 06:48:15;;;;;;;7.07;6.47;;;12.30;99.90;;;;;;5014205;28;20426;-67
2023/10/25 06:50:45;;;;;;;7.20;6.20;;;12.40;99.90;;;;;;5014701;28;20970;-68
2023/10/25 06:53:12;;;;;;;6.57;5.97;;;12.50;99.90;;;;;;5014188;28;20407;-69
2023/10/25 06:55:38;;;;;;;7.87;7.30;;;12.50;99.90;;;;;;5015819;28;20823;-68
2023/10/25 06:58:04;;;;;;;6.90;6.40;;;12.60;99.90;;;;;;5014702;28;20409;-69
2023/10/25 07:00:30;;;;;;;6.70;6.20;;;12.60;99.90;;;;;;5012032;28;20511;-70
2023/10/25 07:03:02;;;;;;;7.17;6.67;;;12.70;99.90;;;;;;5014255;28;20460;-71
2023/10/25 07:05:29;;;;;;;5.97;5.50;;;12.70;99.90;;;;;;5015038;28;20414;-71
2023/10/25 07:07:56;;;;;;;6.53;6.03;;;12.80;99.90;;;;;;5014534;28;20764;-71
2023/10/25 07:10:23;;;;;;;6.13;5.53;;;12.80;99.90;;;;;;5014471;28;20429;-71
2023/10/25 07:12:49;;;;;;;5.60;5.10;;;12.80;99.90;;;;;;5010921;28;20495;-70
2023/10/25 07:15:17;;;;;;;10.20;4.80;;;12.80;99.90;;;;;;5014655;28;20449;-69
2023/10/25 07:17:44;;;;;;;5.80;5.40;;;12.90;99.90;;;;;;5014728;28;20433;-71
2023/10/25 07:20:11;;;;;;;4.93;4.63;;;12.90;99.90;;;;;;5014722;28;20949;-71
2023/10/25 07:22:38;;;;;;;5.57;4.37;;;12.90;99.90;;;;;;5013736;28;20937;-70
2023/10/25 07:25:07;;;;;;;5.17;4.10;;;13.00;99.90;;;;;;5014258;28;20426;-71
2023/10/25 07:27:34;;;;;;;6.33;3.53;;;12.90;99.90;;;;;;5011368;28;20436;-70
2023/10/25 07:29:59;;;;;;;3.93;3.33;;;12.90;99.90;;;;;;5015902;28;20421;-70
2023/10/25 07:32:26;;;;;;;4.13;3.73;;;12.90;99.90;;;;;;5013218;28;20804;-71
2023/10/25 07:34:52;;;;;;;4.30;3.67;;;12.80;99.90;;;;;;5014675;28;20506;-70
2023/10/25 07:37:17;;;;;;;6.63;3.67;;;12.90;99.90;;;;;;5011319;28;20503;-68
2023/10/25 07:39:43;;;;;;;3.43;3.13;;;12.80;99.90;;;;;;5002654;28;20576;-68
2023/10/25 07:42:09;;;;;;;3.60;3.40;;;12.80;99.90;;;;;;5011116;28;20536;-68
2023/10/25 07:44:35;;;;;;;3.57;3.37;;;13.00;99.90;;;;;;5009114;28;20428;-68
2023/10/25 07:47:01;;;;;;;5.77;5.00;;;13.10;99.90;;;;;;5033537;28;20522;-68
2023/10/25 07:49:26;;;;;;;4.73;4.43;;;13.20;99.90;;;;;;5016390;28;20186;-68
2023/10/25 07:51:55;;;;;;;4.30;4.00;;;13.30;99.90;;;;;;5012233;28;20281;-68
2023/10/25 07:54:21;;;;;;;4.67;4.23;;;13.40;99.90;;;;;;5011522;28;20653;-68
2023/10/25 07:56:47;;;;;;;5.10;4.13;;;13.50;99.90;;;;;;4996480;28;20426;-67
2023/10/25 07:59:13;;;;;;;3.67;3.37;;;13.50;99.90;;;;;;5005740;28;20465;-68
2023/10/25 08:01:39;;;;;;;4.40;3.53;;;13.70;99.90;;;;;;5004989;28;20179;-68
2023/10/25 08:04:05;;;;;;;3.87;3.57;;;13.70;99.90;;;;;;5004609;28;20184;-67
2023/10/25 08:06:31;;;;;;;4.13;2.90;;;13.80;99.90;;;;;;5011999;28;20209;-70
2023/10/25 08:08:57;;;;;;;3.40;3.10;;;13.80;99.90;;;;;;5009485;28;20423;-68
2023/10/25 08:11:23;;;;;;;3.20;2.90;;;13.80;99.90;;;;;;4998641;28;20423;-68
2023/10/25 08:13:48;;;;;;;3.60;3.30;;;13.80;99.90;;;;;;5013759;28;20483;-68
2023/10/25 08:16:14;;;;;;;5.10;3.50;;;13.60;99.90;;;;;;5012914;28;20313;-67
2023/10/25 08:18:40;;;;;;;3.47;3.30;;;13.60;99.90;;;;;;5029490;28;20270;-69
2023/10/25 08:21:14;;;;;;;3.00;2.80;;;13.70;99.90;;;;;;5013392;28;20233;-68
2023/10/25 08:23:40;;;;;;;3.50;3.10;;;13.70;99.90;;;;;;5014145;28;20181;-67
2023/10/25 08:26:13;;;;;;;4.17;3.07;;;13.70;99.90;;;;;;5013691;28;20410;-68
2023/10/25 08:28:38;;;;;;;3.37;3.17;;;13.80;99.90;;;;;;5014262;28;20237;-68
2023/10/25 08:31:14;;;;;;;4.33;4.13;;;13.80;99.90;;;;;;5014115;28;20414;-68
2023/10/25 08:33:40;;;;;;;4.40;2.83;;;13.90;99.90;;;;;;5014096;28;20181;-68
2023/10/25 08:36:06;;;;;;;4.20;3.90;;;13.90;99.90;;;;;;5014051;28;20418;-68
2023/10/25 08:38:32;;;;;;;3.67;3.40;;;14.00;99.90;;;;;;5012504;28;20407;-67
2023/10/25 08:41:08;;;;;;;3.90;3.53;;;14.00;99.90;;;;;;5013549;28;21019;-68
2023/10/25 08:43:35;;;;;;;5.07;4.87;;;14.00;99.90;;;;;;5013028;28;20176;-67
2023/10/25 08:46:03;;;;;;;3.60;3.40;;;14.00;99.90;;;;;;5013595;28;20410;-68
2023/10/25 08:48:29;;;;;;;3.70;3.40;;;14.10;99.90;;;;;;5012351;28;20404;-68
2023/10/25 08:50:55;;;;;;;4.30;4.10;;;14.00;99.90;;;;;;5013720;28;20544;-68
2023/10/25 08:53:25;;;;;;;3.07;2.80;;;14.00;99.90;;;;;;5013249;28;20855;-68
2023/10/25 08:55:52;;;;;;;3.43;3.13;;;14.10;99.90;;;;;;5013781;28;20932;-68
2023/10/25 08:58:19;;;;;;;4.63;4.23;;;14.20;99.90;;;;;;5013171;28;20460;-67
2023/10/25 09:00:46;;;;;;;3.77;2.90;;;14.30;99.90;;;;;;5013573;28;20445;-68
2023/10/25 09:03:30;;;;;;;4.53;4.20;;;14.30;99.90;;;;;;5012620;28;20457;-68
2023/10/25 09:05:56;;;;;;;3.43;3.13;;;14.30;99.90;;;;;;5013606;28;20408;-68
2023/10/25 09:08:24;;;;;;;2.83;2.63;;;14.20;99.90;;;;;;5012899;28;20414;-67
2023/10/25 09:10:55;;;;;;;3.07;2.87;;;14.30;99.90;;;;;;5012773;28;20444;-67
2023/10/25 09:13:20;;;;;;;2.70;2.60;;;14.20;99.90;;;;;;5012830;28;20400;-67
2023/10/25 09:15:46;;;;;;;3.00;2.80;;;14.10;99.90;;;;;;5013311;28;20410;-68
2023/10/25 09:18:12;;;;;;;3.50;3.20;;;14.20;99.90;;;;;;5013357;28;20214;-68
2023/10/25 09:20:38;;;;;;;3.40;3.20;;;14.30;99.90;;;;;;5012483;28;20313;-68
2023/10/25 09:23:13;;;;;;;3.33;3.13;;;14.30;99.90;;;;;;5013333;28;20231;-68
2023/10/25 09:25:39;;;;;;;4.03;3.40;;;14.20;99.90;;;;;;5013019;28;20224;-68
2023/10/25 09:28:15;;;;;;;3.80;3.50;;;14.20;99.90;;;;;;5013229;28;20884;-68
2023/10/25 09:30:40;;;;;;;4.23;3.20;;;14.10;99.90;;;;;;5013259;28;20540;-67
2023/10/25 09:33:06;;;;;;;3.03;2.80;;;14.10;99.90;;;;;;5013066;28;20423;-68
2023/10/25 09:35:32;;;;;;;2.70;2.50;;;14.20;99.90;;;;;;5012523;28;20185;-67
2023/10/25 09:37:58;;;;;;;5.77;3.10;;;14.20;99.90;;;;;;5013040;28;20191;-68
2023/10/25 09:40:24;;;;;;;3.47;3.17;;;14.30;99.90;;;;;;5011438;28;20205;-68
2023/10/25 09:42:53;;;;;;;3.83;3.53;;;14.30;99.90;;;;;;5013167;28;20175;-68
2023/10/25 09:45:26;;;;;;;4.40;4.10;;;14.20;99.90;;;;;;5012430;28;20911;-68
2023/10/25 09:47:55;;;;;;;3.07;2.87;;;14.10;99.90;;;;;;5013040;28;20399;-68
2023/10/25 09:50:36;;;;;;;3.70;3.40;;;14.10;99.90;;;;;;5011928;28;20415;-68
2023/10/25 09:53:13;;;;;;;4.50;3.27;;;14.10;99.90;;;;;;5012990;28;20400;-68
2023/10/25 09:55:54;;;;;;;4.70;4.13;;;14.20;99.90;;;;;;5012366;28;20506;-68
2023/10/25 09:58:22;;;;;;;3.50;3.30;;;14.10;99.90;;;;;;5012522;28;20400;-67
2023/10/25 10:00:48;;;;;;;3.73;3.53;;;14.10;99.90;;;;;;5011680;28;20459;-68
2023/10/25 10:03:26;;;;;;;3.73;3.43;;;14.10;99.90;;;;;;5012776;28;20427;-68
2023/10/25 10:06:18;;;;;;;5.73;5.43;;;14.10;99.90;;;;;;5011830;28;20909;-68
2023/10/25 10:08:54;;;;;;;4.97;2.93;;;14.10;99.90;;;;;;5000974;28;20435;-67
2023/10/25 10:11:25;;;;;;;4.63;3.50;;;14.20;99.90;;;;;;5012190;28;20420;-67
2023/10/25 10:14:29;;;;;;;5.07;4.77;;;14.20;99.90;;;;;;5013770;28;20800;-68
2023/10/25 10:17:08;;;;;;;4.40;4.00;;;14.10;99.90;;;;;;5016305;28;20898;-68
2023/10/25 10:19:42;;;;;;;4.10;3.80;;;14.20;99.90;;;;;;5015755;28;20452;-67
2023/10/25 10:22:09;;;;;;;4.23;3.93;;;14.10;99.90;;;;;;5016736;28;20747;-67
2023/10/25 10:24:38;;;;;;;4.97;4.10;;;14.10;99.90;;;;;;5014961;28;20481;-68
2023/10/25 10:27:04;;;;;;;3.73;3.47;;;14.10;99.90;;;;;;5016562;28;20418;-68
2023/10/25 10:29:35;;;;;;;3.30;3.00;;;14.20;99.90;;;;;;5014613;28;20422;-67
2023/10/25 10:32:03;;;;;;;4.90;3.10;;;14.20;99.90;;;;;;5016419;28;20172;-68
2023/10/25 10:34:47;;;;;;;2.57;2.37;;;14.20;99.90;;;;;;5014862;28;20788;-67
2023/10/25 10:37:29;;;;;;;4.73;3.30;;;14.30;99.90;;;;;;5016354;28;20402;-68
2023/10/25 10:39:57;;;;;;;3.30;3.10;;;14.30;99.90;;;;;;5016205;28;20450;-68
2023/10/25 10:42:32;;;;;;;3.60;3.40;;;14.30;99.90;;;;;;5015587;28;20415;-67
2023/10/25 10:45:21;;;;;;;4.50;3.53;;;14.30;99.90;;;;;;5015366;28;20433;-68
2023/10/25 10:47:47;;;;;;;4.17;3.77;;;14.30;99.90;;;;;;5015979;28;20391;-68
2023/10/25 10:50:21;;;;;;;5.47;5.17;;;14.30;99.90;;;;;;5015632;28;20421;-65
2023/10/25 10:52:48;;;;;;;3.50;3.20;;;14.30;99.90;;;;;;5016097;28;20210;-68
2023/10/25 10:55:19;;;;;;;3.37;3.17;;;14.30;99.90;;;;;;5015997;28;20427;-68
2023/10/25 10:57:45;;;;;;;3.17;2.97;;;14.30;99.90;;;;;;5015900;28;20505;-67
2023/10/25 11:00:13;;;;;;;5.80;5.40;;;14.20;99.90;;;;;;5014666;28;20449;-68
2023/10/25 11:02:50;;;;;;;5.87;3.77;;;14.20;99.90;;;;;;5015236;28;20440;-67
2023/10/25 11:05:22;;;;;;;6.13;5.53;;;14.20;99.90;;;;;;5015846;28;20394;-68
2023/10/25 11:07:50;;;;;;;4.23;3.93;;;14.20;99.90;;;;;;5015433;28;20418;-68
2023/10/25 11:10:16;;;;;;;5.33;4.17;;;14.20;99.90;;;;;;5015752;28;20473;-68
2023/10/25 11:12:43;;;;;;;4.33;3.93;;;14.30;99.90;;;;;;5014996;28;20417;-67
2023/10/25 11:15:10;;;;;;;3.63;3.43;;;14.30;99.90;;;;;;5014025;28;20423;-68
2023/10/25 11:17:36;;;;;;;3.93;3.63;;;14.30;99.90;;;;;;5000161;28;20444;-68
2023/10/25 11:20:02;;;;;;;4.40;4.20;;;14.30;99.90;;;;;;4995610;28;20475;-68
2023/10/25 11:22:30;;;;;;;4.40;3.77;;;14.30;99.90;;;;;;4995219;28;20879;-68
2023/10/25 11:25:06;;;;;;;3.93;3.80;;;14.30;99.90;;;;;;4994854;28;20926;-68
2023/10/25 11:27:33;;;;;;;4.73;4.10;;;14.10;99.90;;;;;;5005608;28;20556;-68
2023/10/25 11:30:02;;;;;;;4.13;3.83;;;14.20;99.90;;;;;;5014088;28;20433;-69
2023/10/25 11:32:28;;;;;;;3.57;3.30;;;14.30;99.90;;;;;;5014632;28;20402;-68
2023/10/25 11:34:56;;;;;;;5.57;3.10;;;14.20;99.90;;;;;;5015091;28;20548;-69
2023/10/25 11:37:23;;;;;;;3.23;2.90;;;14.20;99.90;;;;;;5014958;28;20407;-66
2023/10/25 11:39:55;;;;;;;2.90;2.70;;;14.10;99.90;;;;;;5015008;28;20546;-68
2023/10/25 11:42:22;;;;;;;2.70;2.50;;;14.10;99.90;;;;;;5013062;28;20459;-69
2023/10/25 11:44:48;;;;;;;4.47;2.90;;;14.10;99.90;;;;;;5013991;28;20427;-67
2023/10/25 11:47:21;;;;;;;2.60;2.50;;;14.00;99.90;;;;;;5014987;28;20406;-68
2023/10/25 11:50:00;;;;;;;5.40;5.03;;;14.00;99.90;;;;;;5014192;28;20410;-68
2023/10/25 11:52:31;;;;;;;3.27;3.07;;;14.00;99.90;;;;;;5013935;28;20482;-67
2023/10/25 11:54:58;;;;;;;3.13;2.93;;;14.00;99.90;;;;;;5014750;28;20417;-67
2023/10/25 11:57:31;;;;;;;3.73;3.50;;;13.90;99.90;;;;;;5013102;28;20432;-66
2023/10/25 11:59:58;;;;;;;3.07;2.83;;;13.80;99.90;;;;;;5014541;28;20784;-67
2023/10/25 12:02:26;;;;;;;3.20;3.00;;;13.80;99.90;;;;;;5013999;28;20487;-67
2023/10/25 12:04:56;;;;;;;4.70;3.70;;;13.90;99.90;;;;;;5014529;28;20409;-69
2023/10/25 12:07:23;;;;;;;2.73;2.63;;;13.80;99.90;;;;;;5014253;28;20825;-69
2023/10/25 12:09:50;;;;;;;4.13;3.93;;;13.80;99.90;;;;;;5013314;28;20425;-69
2023/10/25 12:12:16;;;;;;;3.80;3.50;;;13.80;99.90;;;;;;5014516;28;20460;-67
2023/10/25 12:14:42;;;;;;;4.00;3.80;;;13.80;99.90;;;;;;5013828;28;20489;-67
2023/10/25 12:17:08;;;;;;;3.53;3.33;;;13.70;99.90;;;;;;5014352;28;20924;-68
2023/10/25 12:19:35;;;;;;;5.13;3.60;;;13.80;99.90;;;;;;5013611;28;20557;-67
2023/10/25 12:22:05;;;;;;;4.27;4.03;;;13.70;99.90;;;;;;5014244;28;20444;-67
2023/10/25 12:24:32;;;;;;;7.20;4.40;;;13.70;99.90;;;;;;5013745;28;20421;-67
2023/10/25 12:26:59;;;;;;;3.83;3.57;;;13.70;99.90;;;;;;5013950;28;20764;-68
2023/10/25 12:29:25;;;;;;;3.17;2.97;;;13.70;99.90;;;;;;5013626;28;20465;-66
2023/10/25 12:31:51;;;;;;;3.90;3.70;;;13.70;99.90;;;;;;5013996;28;20882;-67
2023/10/25 12:34:17;;;;;;;3.97;3.77;;;13.70;99.90;;;;;;5014053;28;20179;-68
2023/10/25 12:36:42;;;;;;;3.53;3.33;;;13.70;99.90;;;;;;5011975;28;20417;-67
2023/10/25 12:39:08;;;;;;;4.00;3.80;;;13.60;99.90;;;;;;5012930;28;20758;-67
2023/10/25 12:41:34;;;;;;;4.33;4.00;;;13.60;99.90;;;;;;5013368;28;20186;-67
2023/10/25 12:44:06;;;;;;;4.20;4.00;;;13.70;99.90;;;;;;5013735;28;20509;-67
2023/10/25 12:46:32;;;;;;;5.90;3.50;;;13.60;99.90;;;;;;5013291;28;20409;-68